Time;durP1;ratioP1;P1;durP2;ratioP2;P2;SDS_P1;SDS_P2;PMS_P1;PMS_P2;Temp;Humidity;BMP_temperature;BMP_pressure;BME280_temperature;BME280_humidity;BME280_pressure;Samples;Min_cycle;Max_cycle;Signal;HPM_P1;HPM_P2
2021/11/02 00:01:10;;;;;;;9.57;6.30;;;9.30;99.90;;;;;;5056567;28;20202;-72
2021/11/02 00:03:39;;;;;;;9.10;6.07;;;9.20;99.90;;;;;;5054135;28;20206;-72
2021/11/02 00:06:06;;;;;;;9.60;6.00;;;9.20;99.90;;;;;;5054544;28;20203;-72
2021/11/02 00:08:33;;;;;;;12.63;7.47;;;9.20;99.90;;;;;;5057474;28;20281;-72
2021/11/02 00:11:00;;;;;;;13.50;7.40;;;9.10;99.90;;;;;;5069026;28;20664;-72
2021/11/02 00:13:34;;;;;;;10.90;6.20;;;9.10;99.90;;;;;;5067037;28;20198;-71
2021/11/02 00:16:09;;;;;;;10.50;6.50;;;9.00;99.90;;;;;;5065828;28;20246;-72
2021/11/02 00:18:43;;;;;;;10.07;6.70;;;9.00;99.90;;;;;;5063379;28;20204;-72
2021/11/02 00:21:10;;;;;;;10.77;7.13;;;9.00;99.90;;;;;;5065817;28;20250;-72
2021/11/02 00:23:38;;;;;;;12.87;7.03;;;8.90;99.90;;;;;;5069585;28;20689;-72
2021/11/02 00:26:07;;;;;;;12.47;7.60;;;8.90;99.90;;;;;;5063792;28;20199;-72
2021/11/02 00:28:35;;;;;;;15.00;7.97;;;8.90;99.90;;;;;;5067139;28;20212;-72
2021/11/02 00:31:03;;;;;;;12.60;7.50;;;8.80;99.90;;;;;;5061881;28;20285;-71
2021/11/02 00:33:31;;;;;;;13.70;8.23;;;8.80;99.90;;;;;;5067433;28;20296;-73
2021/11/02 00:35:58;;;;;;;15.93;9.77;;;8.80;99.90;;;;;;5062733;28;20729;-73
2021/11/02 00:38:26;;;;;;;15.80;8.73;;;8.70;99.90;;;;;;5062880;28;20210;-72
2021/11/02 00:40:53;;;;;;;12.93;7.70;;;8.70;99.90;;;;;;5053529;28;20293;-73
2021/11/02 00:43:23;;;;;;;11.43;7.57;;;8.60;99.90;;;;;;5063010;28;20213;-73
2021/11/02 00:45:50;;;;;;;11.60;6.60;;;8.60;99.90;;;;;;5055193;28;20228;-73
2021/11/02 00:48:25;;;;;;;10.10;6.50;;;8.60;99.90;;;;;;5059725;28;20209;-73
2021/11/02 00:50:53;;;;;;;9.03;6.40;;;8.60;99.90;;;;;;5056427;28;20206;-72
2021/11/02 00:53:21;;;;;;;6.47;4.97;;;8.60;99.90;;;;;;5058126;28;20201;-73
2021/11/02 00:55:48;;;;;;;10.57;6.63;;;8.60;99.90;;;;;;5063657;28;20317;-73
2021/11/02 00:58:16;;;;;;;10.57;6.57;;;8.60;99.90;;;;;;5055876;28;20233;-72
2021/11/02 01:00:43;;;;;;;10.03;6.30;;;8.50;99.90;;;;;;5052549;28;20220;-73
2021/11/02 01:03:11;;;;;;;12.43;6.37;;;8.50;99.90;;;;;;5055564;28;20202;-73
2021/11/02 01:05:40;;;;;;;11.03;6.87;;;8.50;99.90;;;;;;5051184;28;20260;-72
2021/11/02 01:08:07;;;;;;;10.17;6.03;;;8.50;99.90;;;;;;5049820;28;20218;-73
2021/11/02 01:10:35;;;;;;;10.40;6.00;;;8.50;99.90;;;;;;5058292;28;20207;-72
2021/11/02 01:13:02;;;;;;;8.80;5.97;;;8.50;99.90;;;;;;5057511;28;20209;-73
2021/11/02 01:15:31;;;;;;;9.73;6.07;;;8.50;99.90;;;;;;5057413;28;20233;-73
2021/11/02 01:18:00;;;;;;;9.77;5.70;;;8.40;99.90;;;;;;5060229;28;20189;-73
2021/11/02 01:20:31;;;;;;;8.30;5.83;;;8.40;99.90;;;;;;5061359;28;20286;-72
2021/11/02 01:23:00;;;;;;;10.73;6.30;;;8.40;99.90;;;;;;5057297;28;20566;-73
2021/11/02 01:25:27;;;;;;;10.90;6.57;;;8.40;99.90;;;;;;5059129;28;20227;-73
2021/11/02 01:27:54;;;;;;;12.33;6.87;;;8.40;99.90;;;;;;5054929;28;20205;-73
2021/11/02 01:30:26;;;;;;;11.60;6.73;;;8.40;99.90;;;;;;5059233;28;20600;-72
2021/11/02 01:32:53;;;;;;;9.43;6.10;;;8.40;99.90;;;;;;5046797;28;20661;-72
2021/11/02 01:35:20;;;;;;;10.43;6.07;;;8.30;99.90;;;;;;5058602;28;20695;-73
2021/11/02 01:37:56;;;;;;;11.13;6.23;;;8.30;99.90;;;;;;5053411;28;20230;-72
2021/11/02 01:40:25;;;;;;;8.07;5.20;;;8.30;99.90;;;;;;5047772;28;20565;-72
2021/11/02 01:42:52;;;;;;;11.30;6.00;;;8.30;99.90;;;;;;5053831;28;20199;-72
2021/11/02 01:45:27;;;;;;;9.83;5.87;;;8.30;99.90;;;;;;5043951;28;20201;-72
2021/11/02 01:47:55;;;;;;;9.33;6.40;;;8.30;99.90;;;;;;5052157;28;20599;-72
2021/11/02 01:50:29;;;;;;;13.23;6.90;;;8.20;99.90;;;;;;5060325;28;20197;-72
2021/11/02 01:52:56;;;;;;;11.93;6.87;;;8.30;99.90;;;;;;5053017;28;20274;-72
2021/11/02 01:55:24;;;;;;;12.07;6.80;;;8.20;99.90;;;;;;5060160;28;20250;-73
2021/11/02 01:57:52;;;;;;;10.93;6.77;;;8.20;99.90;;;;;;5053770;28;20226;-72
2021/11/02 02:00:24;;;;;;;11.20;6.97;;;8.10;99.90;;;;;;5056625;28;20511;-72
2021/11/02 02:03:06;;;;;;;13.30;7.13;;;8.20;99.90;;;;;;5052048;28;20578;-72
2021/11/02 02:05:43;;;;;;;13.80;7.83;;;8.10;99.90;;;;;;5051282;28;20470;-72
2021/11/02 02:08:18;;;;;;;13.63;7.50;;;8.10;99.90;;;;;;5053299;28;20485;-72
2021/11/02 02:10:57;;;;;;;12.20;7.27;;;8.10;99.90;;;;;;5049286;28;20664;-72
2021/11/02 02:13:31;;;;;;;12.40;7.23;;;8.10;99.90;;;;;;5047918;28;20229;-72
2021/11/02 02:16:12;;;;;;;10.57;7.03;;;8.10;99.90;;;;;;5052054;28;20423;-72
2021/11/02 02:18:48;;;;;;;9.57;6.30;;;8.10;99.90;;;;;;5062300;28;20301;-72
2021/11/02 02:21:45;;;;;;;9.13;6.00;;;8.00;99.90;;;;;;5066022;28;20205;-73
2021/11/02 02:24:22;;;;;;;9.57;6.43;;;8.00;99.90;;;;;;5044044;28;20213;-72
2021/11/02 02:27:08;;;;;;;13.03;7.40;;;8.00;99.90;;;;;;5061862;28;20686;-72
2021/11/02 02:29:42;;;;;;;11.47;7.57;;;8.00;99.90;;;;;;5062909;28;20204;-72
2021/11/02 02:32:16;;;;;;;11.13;6.80;;;7.90;99.90;;;;;;5058666;28;20279;-72
2021/11/02 02:34:47;;;;;;;12.67;6.50;;;7.90;99.90;;;;;;5060789;28;20217;-72
2021/11/02 02:37:17;;;;;;;8.93;5.77;;;7.90;99.90;;;;;;5043427;28;20232;-72
2021/11/02 02:39:45;;;;;;;9.33;5.80;;;7.80;99.90;;;;;;5058496;28;20194;-72
2021/11/02 02:42:17;;;;;;;9.97;6.40;;;7.90;99.90;;;;;;5046437;28;20557;-72
2021/11/02 02:44:51;;;;;;;9.20;6.20;;;7.80;99.90;;;;;;5047480;28;20206;-72
2021/11/02 02:47:21;;;;;;;12.27;6.53;;;7.80;99.90;;;;;;5053911;28;20580;-73
2021/11/02 02:49:50;;;;;;;9.37;5.67;;;7.80;99.90;;;;;;5047778;28;20333;-73
2021/11/02 02:52:18;;;;;;;9.00;5.80;;;7.80;99.90;;;;;;5052817;28;20237;-73
2021/11/02 02:54:52;;;;;;;9.27;6.13;;;7.70;99.90;;;;;;5046422;28;20198;-73
2021/11/02 02:57:20;;;;;;;10.77;6.97;;;7.70;99.90;;;;;;5047658;28;20222;-73
2021/11/02 02:59:51;;;;;;;9.47;6.33;;;7.70;99.90;;;;;;5044813;28;20751;-73
2021/11/02 03:02:21;;;;;;;9.60;6.10;;;7.70;99.90;;;;;;5047318;28;20670;-73
2021/11/02 03:04:52;;;;;;;9.07;5.80;;;7.70;99.90;;;;;;5048330;28;20197;-73
2021/11/02 03:07:22;;;;;;;9.27;6.13;;;7.60;99.90;;;;;;5041855;28;20202;-73
2021/11/02 03:09:49;;;;;;;7.90;5.47;;;7.60;99.90;;;;;;5052236;28;20216;-73
2021/11/02 03:12:25;;;;;;;8.30;5.33;;;7.60;99.90;;;;;;5056447;28;20206;-73
2021/11/02 03:15:07;;;;;;;8.00;4.90;;;7.60;99.90;;;;;;5046541;28;20684;-73
2021/11/02 03:17:44;;;;;;;7.50;5.00;;;7.60;99.90;;;;;;5055223;28;20221;-73
2021/11/02 03:51:41;;;;;;;10.67;7.10;;;7.20;99.90;;;;;;4914707;29;20261;-72
2021/11/02 03:57:27;;;;;;;14.67;8.30;;;7.20;99.90;;;;;;4906844;29;20434;-73
2021/11/02 04:00:26;;;;;;;14.40;8.87;;;7.20;99.90;;;;;;4927322;29;20253;-72
2021/11/02 04:31:45;;;;;;;11.10;6.50;;;7.00;99.90;;;;;;5055290;28;20188;-72
2021/11/02 05:48:11;;;;;;;11.47;6.00;;;6.60;99.90;;;;;;5056866;28;20195;-72
2021/11/02 05:51:11;;;;;;;9.00;6.17;;;6.60;99.90;;;;;;5060145;28;20210;-73
2021/11/02 05:56:27;;;;;;;10.00;6.40;;;6.60;99.90;;;;;;5036216;28;20218;-73
2021/11/02 05:59:12;;;;;;;10.50;6.93;;;6.60;99.90;;;;;;5056357;28;20206;-73
2021/11/02 06:01:50;;;;;;;16.23;8.37;;;6.60;99.90;;;;;;5047836;28;20225;-73
2021/11/02 06:07:27;;;;;;;13.47;8.13;;;6.60;99.90;;;;;;4969993;28;20619;-73
2021/11/02 06:10:04;;;;;;;13.10;8.10;;;6.60;99.90;;;;;;4973244;28;20215;-73
2021/11/02 06:29:24;;;;;;;11.00;6.90;;;6.90;99.90;;;;;;4924084;29;20207;-72
2021/11/02 06:31:55;;;;;;;11.97;7.33;;;6.90;99.90;;;;;;4927822;29;20625;-72
2021/11/02 06:34:31;;;;;;;13.27;7.53;;;7.00;99.90;;;;;;4927341;29;20640;-72
2021/11/02 06:40:10;;;;;;;10.70;6.53;;;7.00;99.90;;;;;;4937044;29;20225;-73
2021/11/02 06:42:55;;;;;;;10.93;6.73;;;7.10;99.90;;;;;;4926753;28;20219;-72
2021/11/02 06:45:55;;;;;;;8.77;6.47;;;7.10;99.90;;;;;;5008140;28;20861;-71
2021/11/02 06:48:43;;;;;;;11.10;6.93;;;7.10;99.90;;;;;;4982495;28;20217;-71
2021/11/02 06:54:08;;;;;;;12.53;7.50;;;7.20;99.90;;;;;;4990838;28;20524;-71
2021/11/02 07:00:21;;;;;;;13.65;8.98;;;7.20;99.90;;;;;;4976740;28;20890;-72
2021/11/02 07:17:15;;;;;;;12.50;8.13;;;7.50;99.90;;;;;;4979591;28;20317;-72
2021/11/02 07:19:52;;;;;;;13.27;8.23;;;7.40;99.90;;;;;;4987076;28;20278;-72
2021/11/02 07:22:41;;;;;;;12.13;7.50;;;7.50;99.90;;;;;;5000271;28;20238;-72
2021/11/02 07:25:21;;;;;;;12.33;6.53;;;7.50;99.90;;;;;;4987968;28;20274;-72
2021/11/02 08:46:02;;;;;;;11.90;7.70;;;8.00;99.90;;;;;;4948922;28;20215;-71
2021/11/02 08:48:29;;;;;;;14.43;8.67;;;8.10;99.90;;;;;;4950438;28;20208;-71
2021/11/02 08:51:00;;;;;;;13.70;8.23;;;8.10;99.90;;;;;;4943584;28;20807;-69
2021/11/02 08:53:27;;;;;;;14.38;9.43;;;8.00;99.90;;;;;;4964451;28;20449;-71
2021/11/02 08:55:55;;;;;;;15.20;8.47;;;8.20;99.90;;;;;;5004718;28;20203;-71
2021/11/02 08:58:25;;;;;;;11.57;7.33;;;8.30;99.90;;;;;;5024138;28;20579;-71
2021/11/02 09:00:55;;;;;;;16.70;9.95;;;8.40;99.90;;;;;;5037859;28;21092;-71
2021/11/02 09:03:24;;;;;;;17.23;9.70;;;8.50;99.90;;;;;;5035566;28;20567;-71
2021/11/02 09:05:54;;;;;;;17.53;9.87;;;8.60;99.90;;;;;;5042702;28;20683;-71
2021/11/02 09:08:25;;;;;;;17.67;9.17;;;8.60;99.90;;;;;;5038205;28;20205;-71
2021/11/02 09:10:52;;;;;;;17.60;9.67;;;8.60;99.90;;;;;;5044343;28;20340;-71
2021/11/02 09:13:24;;;;;;;15.17;8.37;;;8.60;99.90;;;;;;5043140;28;20206;-71
2021/11/02 09:15:54;;;;;;;18.30;10.10;;;8.70;99.90;;;;;;5046323;28;20225;-72
2021/11/02 09:18:23;;;;;;;13.53;8.27;;;8.70;99.90;;;;;;5046157;28;20237;-73
2021/11/02 09:20:52;;;;;;;16.13;9.87;;;8.80;99.90;;;;;;5050361;28;20206;-72
2021/11/02 09:23:22;;;;;;;13.07;8.60;;;8.80;99.90;;;;;;5039654;28;20194;-72
2021/11/02 09:25:51;;;;;;;15.07;9.13;;;8.90;99.90;;;;;;5045023;28;20205;-71
2021/11/02 09:28:19;;;;;;;18.70;12.18;;;8.90;99.90;;;;;;5045576;28;20498;-72
2021/11/02 09:30:47;;;;;;;20.03;12.00;;;8.90;99.90;;;;;;5033519;28;20306;-71
2021/11/02 09:33:15;;;;;;;18.83;11.87;;;9.00;99.90;;;;;;5043404;28;20218;-72
2021/11/02 09:35:42;;;;;;;23.37;12.63;;;9.00;99.90;;;;;;5040941;28;20221;-72
2021/11/02 09:38:17;;;;;;;22.07;13.00;;;9.00;99.90;;;;;;5046682;28;20223;-72
2021/11/02 09:41:25;;;;;;;22.70;13.77;;;9.00;99.90;;;;;;5037286;28;20221;-72
2021/11/02 09:44:39;;;;;;;21.33;12.03;;;9.00;99.90;;;;;;5030676;28;20608;-72
2021/11/02 09:47:37;;;;;;;22.90;12.97;;;8.90;99.90;;;;;;4967078;28;20212;-73
2021/11/02 09:50:29;;;;;;;28.23;14.67;;;9.00;99.90;;;;;;4967126;28;20290;-72
2021/11/02 09:53:25;;;;;;;27.07;14.23;;;9.00;99.90;;;;;;4944897;28;20200;-73
2021/11/02 09:56:18;;;;;;;23.58;14.70;;;8.90;99.90;;;;;;4952276;28;20540;-72
2021/11/02 09:59:24;;;;;;;25.63;12.37;;;8.90;99.90;;;;;;4966730;28;20278;-73
2021/11/02 10:02:02;;;;;;;18.57;11.17;;;8.90;99.90;;;;;;4967212;28;20254;-72
2021/11/02 10:04:55;;;;;;;21.97;11.13;;;9.00;99.90;;;;;;4981054;28;20209;-72
2021/11/02 10:07:56;;;;;;;24.40;13.00;;;9.00;99.90;;;;;;4983371;28;20199;-72
2021/11/02 10:10:32;;;;;;;25.60;14.17;;;9.00;99.90;;;;;;4971807;28;20247;-74
2021/11/02 10:13:20;;;;;;;28.10;14.50;;;9.00;99.90;;;;;;4965537;28;20787;-73
2021/11/02 10:16:03;;;;;;;28.20;15.50;;;9.00;99.90;;;;;;4966269;28;20355;-71
2021/11/02 10:18:45;;;;;;;21.77;12.80;;;8.90;99.90;;;;;;4960904;28;20253;-74
2021/11/02 10:21:50;;;;;;;23.73;13.60;;;8.90;99.90;;;;;;4966912;28;20775;-74
2021/11/02 10:25:02;;;;;;;21.23;12.77;;;8.90;99.90;;;;;;5006707;28;20454;-73
2021/11/02 10:27:50;;;;;;;14.80;9.53;;;9.00;99.90;;;;;;5048480;28;21432;-73
2021/11/02 10:30:37;;;;;;;21.90;11.40;;;9.10;99.90;;;;;;5048362;28;20537;-74
2021/11/02 10:33:09;;;;;;;16.40;10.00;;;9.20;99.90;;;;;;5056526;28;20701;-74
2021/11/02 10:36:04;;;;;;;17.37;10.03;;;9.20;99.90;;;;;;5046962;28;20220;-74
2021/11/02 10:38:45;;;;;;;14.40;8.73;;;9.30;99.90;;;;;;5045803;28;20226;-73
2021/11/02 10:41:20;;;;;;;16.50;9.70;;;9.30;99.90;;;;;;5047837;28;20214;-74
2021/11/02 10:44:09;;;;;;;20.00;11.60;;;9.30;99.90;;;;;;5036213;28;20303;-73
2021/11/02 10:46:44;;;;;;;14.73;9.47;;;9.30;99.90;;;;;;5051860;28;20201;-73
2021/11/02 10:49:26;;;;;;;16.67;10.97;;;9.30;99.90;;;;;;5045440;28;20913;-74
2021/11/02 10:52:02;;;;;;;16.37;9.90;;;9.30;99.90;;;;;;5047680;28;20327;-74
2021/11/02 10:54:52;;;;;;;19.57;11.00;;;9.30;99.90;;;;;;5041778;28;20265;-74
2021/11/02 10:57:46;;;;;;;16.42;10.43;;;9.30;99.90;;;;;;5028974;28;20432;-74
2021/11/02 11:00:16;;;;;;;14.43;9.40;;;9.40;99.90;;;;;;5035137;28;20195;-74
2021/11/02 11:02:46;;;;;;;16.83;10.50;;;9.50;99.90;;;;;;5044739;28;20757;-75
2021/11/02 11:05:16;;;;;;;18.63;12.43;;;9.50;99.90;;;;;;5058337;28;20456;-75
2021/11/02 11:07:44;;;;;;;20.65;13.35;;;9.60;99.90;;;;;;5045050;28;20457;-75
2021/11/02 11:10:13;;;;;;;18.97;12.17;;;9.70;99.90;;;;;;5045197;28;20255;-75
2021/11/02 11:12:46;;;;;;;17.50;11.27;;;9.80;99.90;;;;;;5052072;28;20250;-74
2021/11/02 11:15:13;;;;;;;18.30;9.87;;;9.80;99.90;;;;;;5039861;28;20874;-75
2021/11/02 11:17:50;;;;;;;16.63;10.37;;;9.80;99.90;;;;;;5053323;28;20291;-76
2021/11/02 11:20:19;;;;;;;21.50;11.40;;;9.90;99.90;;;;;;5045391;28;20208;-75
2021/11/02 11:22:50;;;;;;;18.80;10.57;;;9.90;99.90;;;;;;5045812;28;20306;-75
2021/11/02 11:25:20;;;;;;;15.13;9.90;;;9.90;99.90;;;;;;5046977;28;20201;-75
2021/11/02 11:27:55;;;;;;;18.37;11.20;;;9.90;99.90;;;;;;5041645;28;20240;-75
2021/11/02 11:30:28;;;;;;;16.43;10.83;;;9.90;99.90;;;;;;5033377;28;20195;-75
2021/11/02 11:32:58;;;;;;;21.77;12.43;;;9.80;99.90;;;;;;5049317;28;20583;-75
2021/11/02 11:35:26;;;;;;;21.93;12.10;;;9.80;99.90;;;;;;5049799;28;20416;-75
2021/11/02 11:37:54;;;;;;;24.45;14.13;;;9.80;99.90;;;;;;5045570;28;20898;-74
2021/11/02 11:40:24;;;;;;;19.40;12.13;;;9.70;99.90;;;;;;5047138;28;20628;-74
2021/11/02 11:42:54;;;;;;;19.83;12.93;;;9.70;99.90;;;;;;5053709;28;20452;-75
2021/11/02 11:45:24;;;;;;;14.63;9.47;;;9.70;99.90;;;;;;5045726;28;20186;-75
2021/11/02 11:48:06;;;;;;;14.27;9.23;;;9.80;99.90;;;;;;5043172;28;20585;-75
2021/11/02 11:50:36;;;;;;;19.97;11.70;;;9.90;99.90;;;;;;5043172;28;20205;-74
2021/11/02 11:53:03;;;;;;;20.67;11.90;;;9.90;99.90;;;;;;5048454;28;20231;-74
2021/11/02 11:55:32;;;;;;;22.20;11.73;;;9.90;99.90;;;;;;5045635;28;20632;-75
2021/11/02 11:58:17;;;;;;;19.40;11.30;;;9.90;99.90;;;;;;5052226;28;20618;-76
2021/11/02 12:00:46;;;;;;;18.20;11.40;;;9.90;99.90;;;;;;5050706;28;20286;-75
2021/11/02 12:03:40;;;;;;;17.00;10.27;;;9.90;99.90;;;;;;5049554;28;20201;-75
2021/11/02 12:06:13;;;;;;;20.33;11.77;;;9.90;99.90;;;;;;5052549;28;20602;-75
2021/11/02 12:08:46;;;;;;;20.57;12.17;;;9.90;99.90;;;;;;5051462;28;20204;-75
2021/11/02 12:11:19;;;;;;;18.40;12.13;;;9.80;99.90;;;;;;5045979;28;20297;-76
2021/11/02 12:13:49;;;;;;;23.30;12.40;;;9.80;99.90;;;;;;5047113;28;20212;-76
2021/11/02 12:19:06;;;;;;;21.47;13.10;;;9.70;99.90;;;;;;5049549;28;20297;-75
2021/11/02 12:21:35;;;;;;;22.47;12.73;;;9.70;99.90;;;;;;5050238;28;20208;-74
2021/11/02 12:24:05;;;;;;;17.50;11.57;;;9.70;99.90;;;;;;5044988;28;20277;-76
2021/11/02 12:26:41;;;;;;;16.50;10.53;;;9.70;99.90;;;;;;5055458;28;20193;-74
2021/11/02 12:29:11;;;;;;;19.50;10.80;;;9.70;99.90;;;;;;5049455;28;20277;-74
2021/11/02 12:31:39;;;;;;;20.33;11.77;;;9.80;99.90;;;;;;5057697;28;20240;-75
2021/11/02 12:34:16;;;;;;;17.23;11.03;;;9.70;99.90;;;;;;5048179;28;20725;-75
2021/11/02 12:36:47;;;;;;;19.67;11.40;;;9.70;99.90;;;;;;5050514;28;20685;-74
2021/11/02 12:39:19;;;;;;;17.67;11.83;;;9.80;99.90;;;;;;5053579;28;20301;-74
2021/11/02 12:41:52;;;;;;;20.43;12.10;;;9.80;99.90;;;;;;5049143;28;20320;-74
2021/11/02 12:44:25;;;;;;;18.43;10.90;;;9.80;99.90;;;;;;5043828;28;20462;-72
2021/11/02 12:46:53;;;;;;;18.17;11.80;;;9.80;99.90;;;;;;5047271;28;20723;-74
2021/11/02 12:49:28;;;;;;;21.17;11.80;;;9.80;99.90;;;;;;5043802;28;20192;-75
2021/11/02 12:52:02;;;;;;;31.90;16.33;;;9.80;99.90;;;;;;5048530;28;20195;-74
2021/11/02 12:54:31;;;;;;;22.63;13.00;;;9.70;99.90;;;;;;5060831;28;20659;-73
2021/11/02 12:57:03;;;;;;;25.77;15.00;;;9.70;99.90;;;;;;5047902;28;20272;-74
2021/11/02 12:59:37;;;;;;;30.27;17.47;;;9.70;99.90;;;;;;5048657;28;20214;-74
2021/11/02 13:02:19;;;;;;;32.60;17.80;;;9.60;99.90;;;;;;5040089;28;20231;-74
2021/11/02 13:04:51;;;;;;;31.23;17.43;;;9.60;99.90;;;;;;5040187;28;20678;-74
2021/11/02 13:07:18;;;;;;;24.70;13.67;;;9.60;99.90;;;;;;5043747;28;20203;-74
2021/11/02 13:09:50;;;;;;;26.17;14.07;;;9.60;99.90;;;;;;5036771;28;21224;-74
2021/11/02 13:12:23;;;;;;;24.75;15.05;;;9.60;99.90;;;;;;5046567;28;20573;-73
2021/11/02 13:14:51;;;;;;;21.37;12.60;;;9.70;99.90;;;;;;5046394;28;20649;-74
2021/11/02 13:17:28;;;;;;;25.90;14.40;;;9.80;99.90;;;;;;5047216;28;20195;-72
2021/11/02 13:19:58;;;;;;;23.92;15.07;;;9.80;99.90;;;;;;5044708;28;20950;-74
2021/11/02 13:22:28;;;;;;;36.63;19.30;;;9.80;99.90;;;;;;5064333;28;20651;-74
2021/11/02 13:25:01;;;;;;;31.90;17.47;;;9.80;99.90;;;;;;5045743;28;20217;-76
2021/11/02 13:27:39;;;;;;;26.65;16.63;;;9.80;99.90;;;;;;5049248;28;20447;-74
2021/11/02 13:30:27;;;;;;;24.13;14.50;;;9.90;99.90;;;;;;5043116;28;20277;-74
2021/11/02 13:33:02;;;;;;;20.30;12.53;;;9.90;99.90;;;;;;5048793;28;20213;-76
2021/11/02 13:35:53;;;;;;;20.13;12.07;;;9.90;99.90;;;;;;5041091;28;20204;-75
2021/11/02 13:38:29;;;;;;;24.50;13.40;;;9.90;99.90;;;;;;4984103;28;20826;-74
2021/11/02 13:41:03;;;;;;;23.50;13.07;;;10.00;99.90;;;;;;4988921;28;20234;-74
2021/11/02 13:43:35;;;;;;;24.73;13.53;;;9.90;99.90;;;;;;4982449;28;20209;-73
2021/11/02 13:46:03;;;;;;;28.30;15.73;;;9.90;99.90;;;;;;4964713;28;20206;-73
2021/11/02 13:48:32;;;;;;;23.70;14.03;;;9.90;99.90;;;;;;4969419;28;20198;-73
2021/11/02 13:51:01;;;;;;;24.80;14.70;;;9.80;99.90;;;;;;4983260;28;20285;-73
2021/11/02 13:53:32;;;;;;;22.73;13.67;;;9.80;99.90;;;;;;4969837;28;20204;-73
2021/11/02 13:56:00;;;;;;;22.33;12.93;;;9.80;99.90;;;;;;4988581;28;20214;-74
2021/11/02 13:58:27;;;;;;;25.23;14.40;;;9.80;99.90;;;;;;4978559;28;20242;-73
2021/11/02 14:00:55;;;;;;;24.57;14.63;;;9.80;99.90;;;;;;4983938;28;20284;-73
2021/11/02 14:03:27;;;;;;;23.40;13.93;;;9.80;99.90;;;;;;4983093;28;20201;-74
2021/11/02 14:05:56;;;;;;;33.43;17.50;;;9.80;99.90;;;;;;4981241;28;20211;-73
2021/11/02 14:08:25;;;;;;;30.53;16.17;;;9.80;99.90;;;;;;4961572;28;20214;-72
2021/11/02 14:10:54;;;;;;;32.73;18.27;;;9.80;99.90;;;;;;4963777;28;20244;-74
2021/11/02 14:13:51;;;;;;;28.27;14.93;;;9.80;99.90;;;;;;4986841;28;20725;-73
2021/11/02 14:16:32;;;;;;;26.40;14.17;;;9.80;99.90;;;;;;4991994;28;20241;-72
2021/11/02 14:18:59;;;;;;;22.63;12.50;;;9.80;99.90;;;;;;5004447;28;20230;-74
2021/11/02 14:21:48;;;;;;;19.80;11.70;;;9.80;99.90;;;;;;4991588;28;20201;-74
2021/11/02 14:24:29;;;;;;;20.90;12.10;;;9.80;99.90;;;;;;5003693;28;20688;-74
2021/11/02 14:26:56;;;;;;;22.37;12.70;;;9.80;99.90;;;;;;4988905;28;20522;-73
2021/11/02 14:29:46;;;;;;;29.73;15.17;;;9.80;99.90;;;;;;4982487;28;20440;-73
2021/11/02 14:32:50;;;;;;;24.63;14.30;;;9.80;99.90;;;;;;4998135;28;20304;-74
2021/11/02 14:35:52;;;;;;;25.70;15.67;;;9.80;99.90;;;;;;4982693;28;20329;-74
2021/11/02 14:38:22;;;;;;;22.90;13.80;;;9.80;99.90;;;;;;4894711;29;20203;-74
2021/11/02 14:40:52;;;;;;;26.27;15.43;;;9.80;99.90;;;;;;4903861;29;20231;-74
2021/11/02 14:43:27;;;;;;;29.33;16.57;;;9.80;99.90;;;;;;4889273;29;20695;-73
2021/11/02 14:45:56;;;;;;;25.60;14.83;;;9.70;99.90;;;;;;4906836;29;20206;-74
2021/11/02 14:48:47;;;;;;;26.27;15.55;;;9.70;99.90;;;;;;4890001;29;20459;-74
2021/11/02 14:51:26;;;;;;;26.35;16.58;;;9.70;99.90;;;;;;4897456;29;20454;-73
2021/11/02 14:53:55;;;;;;;25.27;14.57;;;9.70;99.90;;;;;;4901090;29;20207;-73
2021/11/02 14:56:36;;;;;;;25.50;15.10;;;9.70;99.90;;;;;;4891356;29;20595;-74
2021/11/02 14:59:05;;;;;;;28.60;16.23;;;9.70;99.90;;;;;;4892424;29;20208;-74
2021/11/02 15:02:07;;;;;;;27.70;15.00;;;9.80;99.90;;;;;;4895974;29;20208;-74
2021/11/02 15:04:36;;;;;;;22.60;13.83;;;9.70;99.90;;;;;;4913535;29;20843;-73
2021/11/02 15:07:04;;;;;;;26.40;14.73;;;9.80;99.90;;;;;;4917986;29;20230;-74
2021/11/02 15:09:34;;;;;;;31.50;18.53;;;9.70;99.90;;;;;;4897300;29;20247;-73
2021/11/02 15:12:05;;;;;;;35.63;21.50;;;9.70;99.90;;;;;;4905906;29;20435;-75
2021/11/02 15:14:34;;;;;;;28.53;17.17;;;9.70;99.90;;;;;;4924458;28;20216;-75
2021/11/02 15:17:05;;;;;;;32.70;17.00;;;9.70;99.90;;;;;;4970356;28;20204;-75
2021/11/02 15:19:35;;;;;;;33.63;18.00;;;9.70;99.90;;;;;;4966526;28;20312;-73
2021/11/02 15:22:06;;;;;;;33.77;18.40;;;9.70;99.90;;;;;;4952577;28;20330;-74
2021/11/02 15:24:35;;;;;;;37.50;21.20;;;9.70;99.90;;;;;;4955933;28;20207;-74
2021/11/02 15:27:08;;;;;;;40.00;21.07;;;9.60;99.90;;;;;;4959974;28;20200;-73
2021/11/02 15:29:37;;;;;;;33.77;18.20;;;9.60;99.90;;;;;;5057464;28;20208;-75
2021/11/02 15:32:07;;;;;;;31.57;18.30;;;9.60;99.90;;;;;;5054735;28;20224;-74
2021/11/02 15:34:40;;;;;;;31.67;17.30;;;9.60;99.90;;;;;;5057103;28;20235;-74
2021/11/02 15:37:08;;;;;;;30.13;16.77;;;9.50;99.90;;;;;;5056678;28;20258;-75
2021/11/02 15:39:35;;;;;;;39.00;20.37;;;9.50;99.90;;;;;;5054680;28;20239;-74
2021/11/02 15:42:05;;;;;;;38.47;21.93;;;9.50;99.90;;;;;;5057035;28;20212;-74
2021/11/02 15:44:32;;;;;;;42.43;22.77;;;9.40;99.90;;;;;;5052211;28;20447;-74
2021/11/02 15:47:00;;;;;;;32.60;19.10;;;9.40;99.90;;;;;;5055343;28;20760;-74
2021/11/02 15:49:27;;;;;;;30.20;16.80;;;9.40;99.90;;;;;;5039914;28;20200;-74
2021/11/02 15:51:57;;;;;;;33.63;19.33;;;9.40;99.90;;;;;;5061927;28;20293;-75
2021/11/02 15:54:26;;;;;;;30.97;17.90;;;9.40;99.90;;;;;;5064337;28;20780;-75
2021/11/02 15:56:55;;;;;;;35.00;18.67;;;9.40;99.90;;;;;;5056460;28;20194;-75
2021/11/02 15:59:27;;;;;;;36.27;20.20;;;9.40;99.90;;;;;;5050196;28;20199;-74
2021/11/02 16:01:54;;;;;;;37.13;19.73;;;9.40;99.90;;;;;;5065267;28;20288;-74
2021/11/02 16:04:23;;;;;;;36.77;21.27;;;9.40;99.90;;;;;;5061190;28;20661;-74
2021/11/02 16:07:02;;;;;;;41.33;22.00;;;9.40;99.90;;;;;;5064707;28;20205;-74
2021/11/02 16:09:51;;;;;;;47.27;24.03;;;9.40;99.90;;;;;;5054241;28;20225;-74
2021/11/02 16:12:24;;;;;;;39.07;20.47;;;9.30;99.90;;;;;;5063595;28;20195;-74
2021/11/02 16:14:55;;;;;;;37.27;20.20;;;9.30;99.90;;;;;;5063566;28;20217;-74
2021/11/02 16:17:24;;;;;;;34.90;19.57;;;9.30;99.90;;;;;;5060732;28;20752;-74
2021/11/02 16:19:53;;;;;;;37.43;20.33;;;9.30;99.90;;;;;;5061147;28;20225;-74
2021/11/02 16:22:20;;;;;;;39.97;22.10;;;9.30;99.90;;;;;;5065247;28;20213;-74
2021/11/02 16:25:06;;;;;;;38.23;20.70;;;9.30;99.90;;;;;;5065740;28;20194;-74
2021/11/02 16:27:33;;;;;;;37.40;20.53;;;9.30;99.90;;;;;;5047873;28;20686;-74
2021/11/02 16:30:17;;;;;;;42.80;24.00;;;9.30;99.90;;;;;;5062931;28;20192;-75
2021/11/02 16:32:49;;;;;;;37.87;20.93;;;9.30;99.90;;;;;;5051677;28;20198;-75
2021/11/02 16:35:33;;;;;;;32.17;18.27;;;9.20;99.90;;;;;;5064699;28;20230;-74
2021/11/02 16:38:19;;;;;;;33.00;18.20;;;9.30;99.90;;;;;;5063308;28;20202;-74
2021/11/02 16:40:48;;;;;;;35.07;19.60;;;9.30;99.90;;;;;;5058127;28;20224;-75
2021/11/02 16:43:15;;;;;;;33.10;18.63;;;9.30;99.90;;;;;;5056457;28;20196;-74
2021/11/02 16:45:50;;;;;;;27.53;16.23;;;9.30;99.90;;;;;;5055926;28;20302;-74
2021/11/02 16:48:17;;;;;;;34.10;18.27;;;9.30;99.90;;;;;;5062605;28;20562;-74
2021/11/02 16:50:51;;;;;;;30.83;18.40;;;9.30;99.90;;;;;;5060440;28;20295;-75
2021/11/02 16:53:24;;;;;;;35.97;19.90;;;9.30;99.90;;;;;;5059414;28;20304;-74
2021/11/02 16:55:52;;;;;;;28.70;17.07;;;9.30;99.90;;;;;;5064754;28;20199;-74
2021/11/02 16:58:31;;;;;;;24.03;14.93;;;9.30;99.90;;;;;;5061117;28;20284;-74
2021/11/02 17:01:18;;;;;;;25.97;14.90;;;9.30;99.90;;;;;;5068068;28;20298;-74
2021/11/02 17:03:46;;;;;;;27.27;16.27;;;9.40;99.90;;;;;;5062880;28;20302;-75
2021/11/02 17:06:15;;;;;;;21.53;13.33;;;9.40;99.90;;;;;;5069443;28;20221;-75
2021/11/02 17:09:11;;;;;;;21.67;13.10;;;9.40;99.90;;;;;;5058920;28;20282;-74
2021/11/02 17:11:53;;;;;;;28.00;15.47;;;9.50;99.90;;;;;;5008093;28;20212;-73
2021/11/02 17:14:20;;;;;;;28.73;15.60;;;9.50;99.90;;;;;;4997519;28;20212;-74
2021/11/02 17:16:55;;;;;;;26.53;14.77;;;9.50;99.90;;;;;;5003539;28;20618;-75
2021/11/02 17:19:23;;;;;;;25.90;15.83;;;9.50;99.90;;;;;;4988281;28;20202;-74
2021/11/02 17:21:53;;;;;;;33.30;18.10;;;9.50;99.90;;;;;;5022583;28;20223;-74
2021/11/02 17:24:21;;;;;;;29.23;17.13;;;9.40;99.90;;;;;;5007849;28;20227;-74
2021/11/02 17:26:48;;;;;;;34.00;18.30;;;9.40;99.90;;;;;;5004248;28;20885;-74
2021/11/02 17:29:16;;;;;;;31.03;17.30;;;9.40;99.90;;;;;;5007032;28;20253;-74
2021/11/02 17:31:45;;;;;;;31.13;17.37;;;9.40;99.90;;;;;;5019114;28;20201;-74
2021/11/02 17:34:20;;;;;;;30.27;16.83;;;9.40;99.90;;;;;;5006916;28;20312;-75
2021/11/02 17:36:48;;;;;;;26.37;14.57;;;9.40;99.90;;;;;;5014234;28;20625;-74
2021/11/02 17:39:16;;;;;;;29.60;17.30;;;9.40;99.90;;;;;;5005454;28;20200;-74
2021/11/02 17:41:45;;;;;;;29.23;15.97;;;9.40;99.90;;;;;;4999342;28;20264;-74
2021/11/02 17:44:13;;;;;;;30.23;16.90;;;9.40;99.90;;;;;;5019505;28;20755;-74